Time;durP1;ratioP1;P1;durP2;ratioP2;P2;SDS_P1;SDS_P2;PMS_P1;PMS_P2;Temp;Humidity;BMP_temperature;BMP_pressure;BME280_temperature;BME280_humidity;BME280_pressure;Samples;Min_cycle;Max_cycle;Signal;HPM_P1;HPM_P2
2022/11/01 00:00:22;;;;;;;11.70;3.55;;;17.70;99.90;;;;;;4134741;28;20169;-94
2022/11/01 00:02:23;;;;;;;12.35;4.20;;;17.80;99.90;;;;;;4152045;28;20559;-93
2022/11/01 00:04:23;;;;;;;12.80;3.50;;;17.70;99.90;;;;;;4120144;28;20261;-92
2022/11/01 00:06:24;;;;;;;14.40;4.00;;;17.80;99.90;;;;;;4119579;28;20524;-95
2022/11/01 00:08:25;;;;;;;14.80;3.67;;;17.80;99.90;;;;;;4136372;28;20260;-92
2022/11/01 00:10:26;;;;;;;9.55;3.88;;;17.90;99.90;;;;;;4136692;28;20169;-92
2022/11/01 00:12:29;;;;;;;16.40;4.05;;;17.80;99.90;;;;;;4120523;28;20202;-95
2022/11/01 00:14:30;;;;;;;8.88;4.00;;;17.80;99.90;;;;;;4136401;28;20169;-92
2022/11/01 00:16:31;;;;;;;11.70;3.80;;;17.90;99.90;;;;;;4135662;28;20173;-90
2022/11/01 00:18:32;;;;;;;12.30;4.00;;;18.10;99.90;;;;;;4119612;28;20214;-94
2022/11/01 00:20:32;;;;;;;11.48;3.83;;;18.10;99.90;;;;;;4134983;28;20224;-92
2022/11/01 00:22:33;;;;;;;10.73;3.97;;;18.00;99.90;;;;;;4118362;28;20225;-93
2022/11/01 00:24:34;;;;;;;13.82;3.38;;;18.10;99.90;;;;;;4135561;28;20177;-91
2022/11/01 00:26:34;;;;;;;10.73;3.67;;;18.20;99.90;;;;;;4135974;28;20177;-95
2022/11/01 00:28:35;;;;;;;10.98;3.65;;;18.20;99.90;;;;;;4122389;28;20169;-93
2022/11/01 00:30:40;;;;;;;12.48;3.92;;;18.20;99.90;;;;;;4135443;28;20208;-96
2022/11/01 00:32:41;;;;;;;10.93;3.53;;;18.20;99.90;;;;;;4134438;28;20198;-91
2022/11/01 00:34:42;;;;;;;13.98;4.25;;;18.20;99.90;;;;;;4134569;28;20724;-92
2022/11/01 00:36:43;;;;;;;16.20;3.70;;;18.10;99.90;;;;;;4134891;28;20257;-90
2022/11/01 00:38:43;;;;;;;14.55;3.25;;;18.10;99.90;;;;;;4118425;28;20245;-91
2022/11/01 00:40:45;;;;;;;8.95;3.75;;;18.10;99.90;;;;;;4134405;28;20681;-93
2022/11/01 00:42:45;;;;;;;12.50;3.22;;;18.10;99.90;;;;;;4118569;28;20228;-90
2022/11/01 00:44:46;;;;;;;11.48;3.30;;;17.90;99.90;;;;;;4135292;28;20264;-91
2022/11/01 00:46:47;;;;;;;9.57;3.78;;;17.90;99.90;;;;;;4134254;28;20178;-91
2022/11/01 00:48:48;;;;;;;9.77;3.45;;;17.80;99.90;;;;;;4134127;28;20166;-92
2022/11/01 00:50:49;;;;;;;9.85;3.72;;;17.90;99.90;;;;;;4135255;28;20235;-90
2022/11/01 00:52:50;;;;;;;10.63;3.83;;;17.90;99.90;;;;;;4134450;28;20233;-93
2022/11/01 00:54:51;;;;;;;10.63;3.20;;;17.90;99.90;;;;;;4118743;28;20194;-91
2022/11/01 00:56:51;;;;;;;12.43;3.60;;;17.80;99.90;;;;;;4134000;28;20236;-94
2022/11/01 00:58:52;;;;;;;16.50;3.42;;;17.70;99.90;;;;;;4117549;28;20260;-90
2022/11/01 01:00:53;;;;;;;13.13;3.47;;;17.70;99.90;;;;;;4134277;28;20240;-90
2022/11/01 01:02:53;;;;;;;12.23;3.30;;;17.80;99.90;;;;;;4133615;28;20204;-91
2022/11/01 01:04:54;;;;;;;11.90;3.05;;;17.70;99.90;;;;;;4150145;28;20177;-91
2022/11/01 01:06:55;;;;;;;8.40;2.78;;;17.70;99.90;;;;;;4118202;28;20512;-92
2022/11/01 01:09:00;;;;;;;8.07;2.75;;;17.80;99.90;;;;;;4117755;28;20189;-92
2022/11/01 01:11:00;;;;;;;7.25;2.85;;;17.80;99.90;;;;;;4134269;28;20649;-91
2022/11/01 01:13:01;;;;;;;10.10;2.88;;;17.70;99.90;;;;;;4134429;28;20202;-93
2022/11/01 01:15:03;;;;;;;10.13;2.42;;;17.80;99.90;;;;;;4118029;28;20190;-92
2022/11/01 01:17:04;;;;;;;12.73;2.97;;;17.70;99.90;;;;;;4133982;28;20206;-91
2022/11/01 01:19:05;;;;;;;6.05;2.35;;;17.70;99.90;;;;;;4134905;28;20703;-89
2022/11/01 01:21:05;;;;;;;10.50;2.60;;;17.70;99.90;;;;;;4117708;28;20170;-89
2022/11/01 01:23:06;;;;;;;10.55;2.75;;;17.50;99.90;;;;;;4133147;28;20200;-94
2022/11/01 01:25:08;;;;;;;8.40;2.30;;;17.50;99.90;;;;;;4134070;28;20174;-94
2022/11/01 01:27:08;;;;;;;9.40;2.90;;;17.50;99.90;;;;;;4149892;28;20188;-91
2022/11/01 01:29:09;;;;;;;5.78;2.33;;;17.40;99.90;;;;;;4133700;28;20173;-90
2022/11/01 01:31:11;;;;;;;19.38;2.58;;;17.50;99.90;;;;;;4117304;28;20657;-91
2022/11/01 01:33:12;;;;;;;8.52;2.17;;;17.50;99.90;;;;;;4117712;28;20174;-93
2022/11/01 01:35:13;;;;;;;10.73;2.35;;;17.50;99.90;;;;;;4149670;28;20188;-91
2022/11/01 01:37:14;;;;;;;6.95;2.10;;;17.50;99.90;;;;;;4117676;28;20198;-92
2022/11/01 01:39:15;;;;;;;3.35;1.95;;;17.60;99.90;;;;;;4133739;28;20209;-95
2022/11/01 01:43:42;;;;;;;6.45;2.03;;;17.40;99.90;;;;;;4149515;28;20185;-89
2022/11/01 01:45:43;;;;;;;4.82;1.83;;;17.30;99.90;;;;;;4133603;28;20188;-92
2022/11/01 01:47:47;;;;;;;3.40;1.50;;;17.30;99.90;;;;;;4149802;28;20177;-91
2022/11/01 01:49:52;;;;;;;6.65;1.65;;;17.30;99.90;;;;;;4133195;28;20630;-91
2022/11/01 01:51:53;;;;;;;4.90;1.42;;;17.20;99.90;;;;;;4133403;28;20665;-90
2022/11/01 01:53:56;;;;;;;4.35;1.33;;;17.10;99.90;;;;;;4132801;28;20203;-90
2022/11/01 01:56:06;;;;;;;6.32;1.30;;;17.00;99.90;;;;;;4133465;28;20704;-89
2022/11/01 01:58:09;;;;;;;3.58;1.25;;;17.00;99.90;;;;;;4132915;28;20303;-92
2022/11/01 02:00:11;;;;;;;4.50;1.50;;;17.10;99.90;;;;;;4132739;28;20663;-89
2022/11/01 02:02:12;;;;;;;3.00;1.30;;;17.10;99.90;;;;;;4148967;28;20661;-89
2022/11/01 02:04:34;;;;;;;5.78;1.50;;;17.20;99.90;;;;;;4116317;28;20587;-90
2022/11/01 02:06:35;;;;;;;7.35;1.20;;;17.20;99.90;;;;;;4116938;28;20178;-92
2022/11/01 02:08:40;;;;;;;4.97;0.80;;;17.30;99.90;;;;;;4117952;28;20273;-89
2022/11/01 02:10:42;;;;;;;5.68;1.00;;;17.20;99.90;;;;;;4133846;28;20200;-91
2022/11/01 02:12:46;;;;;;;2.80;1.00;;;17.10;99.90;;;;;;4117416;28;20195;-92
2022/11/01 02:14:46;;;;;;;4.00;0.70;;;16.90;99.90;;;;;;4132904;28;20177;-91
2022/11/01 02:17:03;;;;;;;4.72;0.80;;;16.90;99.90;;;;;;4132933;28;20192;-89
2022/11/01 02:19:38;;;;;;;2.22;0.73;;;16.80;99.90;;;;;;4132889;28;20180;-90
2022/11/01 02:22:11;;;;;;;5.20;0.63;;;16.70;99.90;;;;;;4132521;28;20193;-89
2022/11/01 02:24:21;;;;;;;1.83;0.40;;;16.60;99.90;;;;;;4133370;28;20586;-91
2022/11/01 02:27:06;;;;;;;1.95;0.50;;;16.40;99.90;;;;;;4148932;28;20181;-94
2022/11/01 02:29:25;;;;;;;1.70;0.50;;;16.20;99.90;;;;;;4084338;29;20384;-90
2022/11/01 02:31:37;;;;;;;6.03;0.60;;;16.20;99.90;;;;;;4118275;28;20190;-95
2022/11/01 02:33:49;;;;;;;2.55;0.40;;;16.20;99.90;;;;;;4116076;28;20174;-89
2022/11/01 02:35:58;;;;;;;7.60;0.47;;;16.20;99.90;;;;;;4148471;28;20589;-90
2022/11/01 02:38:02;;;;;;;2.58;0.40;;;16.20;99.90;;;;;;4148674;28;20204;-90
2022/11/01 02:40:11;;;;;;;5.15;0.77;;;16.10;99.90;;;;;;4132337;28;20565;-89
2022/11/01 02:42:18;;;;;;;8.27;0.70;;;16.00;99.90;;;;;;4132062;28;20335;-90
2022/11/01 02:44:24;;;;;;;4.20;0.43;;;16.00;99.90;;;;;;4131974;28;20240;-89
2022/11/01 02:48:48;;;;;;;8.18;0.52;;;15.80;99.90;;;;;;4148466;28;20185;-93
2022/11/01 02:50:54;;;;;;;2.50;0.38;;;15.90;99.90;;;;;;4131960;28;20177;-93
2022/11/01 02:52:55;;;;;;;5.93;0.45;;;15.80;99.90;;;;;;4131897;28;20209;-93
2022/11/01 02:54:58;;;;;;;3.25;0.80;;;15.70;99.90;;;;;;4131943;28;20550;-94
2022/11/01 02:57:12;;;;;;;3.42;0.50;;;15.60;99.90;;;;;;4132002;28;20209;-92
2022/11/01 02:59:21;;;;;;;2.15;0.45;;;15.70;99.90;;;;;;4148158;28;20188;-89
2022/11/01 03:01:25;;;;;;;4.95;0.45;;;15.60;99.90;;;;;;4132223;28;20172;-89
2022/11/01 03:03:31;;;;;;;4.88;0.68;;;15.50;99.90;;;;;;4132728;28;20181;-89
2022/11/01 03:05:53;;;;;;;3.78;0.50;;;15.60;99.90;;;;;;4132300;28;20300;-95
2022/11/01 03:07:59;;;;;;;7.05;0.60;;;15.70;99.90;;;;;;4132369;28;20188;-90
2022/11/01 03:10:01;;;;;;;2.78;0.70;;;15.60;99.90;;;;;;4132230;28;20166;-94
2022/11/01 03:12:07;;;;;;;5.55;0.50;;;15.60;99.90;;;;;;4132152;28;20653;-90
2022/11/01 03:14:30;;;;;;;4.13;0.60;;;15.50;99.90;;;;;;4148269;28;20180;-94
2022/11/01 03:16:31;;;;;;;7.00;0.52;;;15.50;99.90;;;;;;4135344;28;20207;-89
2022/11/01 03:18:35;;;;;;;7.75;0.60;;;15.50;99.90;;;;;;4135202;28;20225;-89
2022/11/01 03:20:49;;;;;;;7.82;0.85;;;15.40;99.90;;;;;;4135365;28;20642;-88
2022/11/01 03:22:56;;;;;;;3.42;0.55;;;15.50;99.90;;;;;;4135260;28;20280;-89
2022/11/01 03:27:43;;;;;;;5.88;0.80;;;15.20;99.90;;;;;;4135210;28;20177;-88
2022/11/01 03:29:48;;;;;;;3.72;0.75;;;15.30;99.90;;;;;;4135131;28;20170;-89
2022/11/01 03:31:52;;;;;;;4.82;0.52;;;15.20;99.90;;;;;;4135207;28;20197;-90
2022/11/01 03:34:00;;;;;;;4.40;0.50;;;15.10;99.90;;;;;;4135346;28;20189;-89
2022/11/01 03:36:07;;;;;;;4.22;0.65;;;15.10;99.90;;;;;;4135248;28;20173;-89
2022/11/01 03:38:15;;;;;;;6.68;0.93;;;15.10;99.90;;;;;;4134766;28;20216;-93
2022/11/01 03:40:17;;;;;;;6.60;0.85;;;15.20;99.90;;;;;;4135023;28;20172;-88
2022/11/01 03:42:21;;;;;;;9.85;0.82;;;15.10;99.90;;;;;;4134936;28;20208;-89
2022/11/01 03:44:22;;;;;;;7.28;0.77;;;15.20;99.90;;;;;;4134858;28;20181;-89
2022/11/01 03:46:23;;;;;;;5.65;0.90;;;15.10;99.90;;;;;;4151150;28;20181;-88
2022/11/01 03:48:24;;;;;;;7.65;0.55;;;15.00;99.90;;;;;;4134780;28;20538;-94
2022/11/01 03:50:26;;;;;;;4.70;0.55;;;15.10;99.90;;;;;;4118544;28;20179;-88
2022/11/01 03:52:27;;;;;;;5.18;0.57;;;15.20;99.90;;;;;;4134659;28;20666;-88
2022/11/01 03:54:28;;;;;;;5.43;0.60;;;15.20;99.90;;;;;;4134674;28;20261;-88
2022/11/01 03:56:28;;;;;;;8.88;0.85;;;15.10;99.90;;;;;;4118630;28;20193;-89
2022/11/01 03:58:40;;;;;;;3.17;0.70;;;15.20;99.90;;;;;;4134490;28;20702;-90
2022/11/01 04:00:43;;;;;;;7.78;0.88;;;15.30;99.90;;;;;;4118615;28;20178;-89
2022/11/01 04:02:44;;;;;;;7.63;1.10;;;15.30;99.90;;;;;;4134436;28;20666;-89
2022/11/01 04:04:45;;;;;;;4.25;0.55;;;15.30;99.90;;;;;;4134624;28;20173;-94
2022/11/01 04:06:45;;;;;;;4.03;0.50;;;15.20;99.90;;;;;;4134573;28;20203;-89
2022/11/01 04:08:46;;;;;;;5.47;0.60;;;15.20;99.90;;;;;;4134959;28;20192;-86
2022/11/01 04:10:47;;;;;;;4.25;0.60;;;15.10;99.90;;;;;;4118630;28;20190;-88
2022/11/01 04:12:48;;;;;;;5.00;0.65;;;15.00;99.90;;;;;;4134825;28;20201;-88
2022/11/01 04:21:47;;;;;;;3.55;1.17;;;14.90;99.90;;;;;;4134402;28;20718;-93
2022/11/01 04:23:48;;;;;;;6.97;0.70;;;14.70;99.90;;;;;;4134220;28;20212;-90
2022/11/01 04:25:49;;;;;;;8.25;0.70;;;14.60;99.90;;;;;;4133975;28;20182;-94
2022/11/01 04:27:50;;;;;;;3.80;0.70;;;14.50;99.90;;;;;;4118224;28;20260;-95
2022/11/01 04:29:50;;;;;;;6.85;1.02;;;14.50;99.90;;;;;;4117919;28;20175;-94
2022/11/01 04:31:51;;;;;;;4.00;0.60;;;14.50;99.90;;;;;;4134342;28;20201;-94
2022/11/01 04:33:52;;;;;;;5.55;0.80;;;14.60;99.90;;;;;;4134155;28;20265;-89
2022/11/01 04:35:52;;;;;;;5.82;0.63;;;14.60;99.90;;;;;;4118218;28;20186;-89
2022/11/01 04:37:57;;;;;;;6.00;0.70;;;14.50;99.90;;;;;;4134169;28;20217;-89
2022/11/01 04:39:58;;;;;;;6.75;0.68;;;14.50;99.90;;;;;;4134382;28;20193;-94
2022/11/01 04:41:59;;;;;;;6.18;0.70;;;14.50;99.90;;;;;;4150260;28;20239;-93
2022/11/01 04:44:00;;;;;;;5.32;0.50;;;14.40;99.90;;;;;;4118082;28;20206;-94
2022/11/01 04:46:00;;;;;;;4.25;0.70;;;14.50;99.90;;;;;;4117791;28;20171;-91
2022/11/01 04:48:12;;;;;;;6.55;0.90;;;14.40;99.90;;;;;;4134033;28;20170;-94
2022/11/01 04:50:13;;;;;;;4.90;0.38;;;14.40;99.90;;;;;;4133965;28;20247;-89
2022/11/01 04:52:14;;;;;;;7.40;0.90;;;14.30;99.90;;;;;;4134056;28;20181;-89
2022/11/01 04:54:15;;;;;;;3.97;0.70;;;14.20;99.90;;;;;;4133892;28;20634;-90
2022/11/01 04:56:15;;;;;;;5.18;0.63;;;14.20;99.90;;;;;;4118013;28;20180;-88
2022/11/01 04:58:16;;;;;;;11.00;1.20;;;14.10;99.90;;;;;;4149962;28;20228;-94
2022/11/01 05:00:17;;;;;;;8.30;0.95;;;14.20;99.90;;;;;;4117746;28;20183;-90
2022/11/01 05:02:19;;;;;;;5.20;0.70;;;14.20;99.90;;;;;;4117764;28;20206;-89
2022/11/01 05:04:20;;;;;;;6.05;0.80;;;14.20;99.90;;;;;;4133466;28;20257;-94
2022/11/01 05:06:20;;;;;;;11.85;0.90;;;14.20;99.90;;;;;;4117540;28;20241;-94
2022/11/01 05:08:21;;;;;;;4.35;0.88;;;14.20;99.90;;;;;;4150472;28;20191;-94
2022/11/01 05:10:22;;;;;;;9.85;0.90;;;14.20;99.90;;;;;;4133761;28;20177;-94
2022/11/01 05:12:22;;;;;;;9.30;0.80;;;14.10;99.90;;;;;;4133863;28;20220;-91
2022/11/01 05:14:23;;;;;;;3.38;0.55;;;14.10;99.90;;;;;;4133753;28;20212;-91
2022/11/01 05:16:24;;;;;;;10.52;0.77;;;14.00;99.90;;;;;;4117586;28;20315;-91
2022/11/01 05:18:24;;;;;;;6.78;0.95;;;14.10;99.90;;;;;;4117280;28;20214;-90
2022/11/01 05:20:25;;;;;;;10.88;0.73;;;14.10;99.90;;;;;;4149700;28;20172;-90
2022/11/01 05:22:26;;;;;;;6.68;1.35;;;14.00;99.90;;;;;;4117027;28;20265;-90
2022/11/01 05:24:26;;;;;;;7.85;0.90;;;13.80;99.90;;;;;;4133259;28;20170;-90
2022/11/01 05:26:27;;;;;;;7.38;1.10;;;13.80;99.90;;;;;;4117192;28;20241;-90
2022/11/01 05:28:28;;;;;;;7.68;0.90;;;13.80;99.90;;;;;;4133558;28;20223;-89
2022/11/01 05:30:28;;;;;;;5.50;0.77;;;13.70;99.90;;;;;;4133154;28;20165;-89
2022/11/01 05:32:30;;;;;;;7.63;0.90;;;13.60;99.90;;;;;;4117204;28;20324;-90
2022/11/01 05:34:31;;;;;;;11.55;1.10;;;13.70;99.90;;;;;;4133418;28;20174;-88
2022/11/01 05:36:31;;;;;;;8.32;0.90;;;13.70;99.90;;;;;;4133165;28;20172;-91
2022/11/01 05:38:32;;;;;;;15.25;1.33;;;13.70;99.90;;;;;;4132468;28;20216;-90
2022/11/01 05:40:33;;;;;;;7.07;1.10;;;13.60;99.90;;;;;;4117372;28;20174;-90
2022/11/01 05:42:37;;;;;;;10.20;1.27;;;13.60;99.90;;;;;;4133373;28;20197;-90
2022/11/01 05:44:38;;;;;;;11.00;1.10;;;13.40;99.90;;;;;;4133198;28;20201;-89
2022/11/01 05:46:38;;;;;;;10.73;1.05;;;13.40;99.90;;;;;;4133214;28;20180;-89
2022/11/01 05:48:40;;;;;;;6.82;1.02;;;13.40;99.90;;;;;;4117006;28;20189;-88
2022/11/01 05:50:42;;;;;;;10.30;1.08;;;13.30;99.90;;;;;;4133392;28;20173;-94
2022/11/01 05:52:43;;;;;;;13.70;1.10;;;13.30;99.90;;;;;;4133270;28;20777;-89
2022/11/01 05:54:44;;;;;;;11.80;1.38;;;13.30;99.90;;;;;;4133011;28;20177;-90
2022/11/01 05:56:45;;;;;;;7.13;0.90;;;13.50;99.90;;;;;;4133479;28;20231;-91
2022/11/01 05:58:46;;;;;;;11.75;1.20;;;13.40;99.90;;;;;;4133026;28;20224;-90
2022/11/01 06:00:47;;;;;;;6.07;1.00;;;13.20;99.90;;;;;;4132864;28;20205;-92
2022/11/01 06:02:47;;;;;;;9.45;0.88;;;13.10;99.90;;;;;;4133278;28;20235;-94
2022/11/01 06:04:48;;;;;;;6.32;1.00;;;13.00;99.90;;;;;;4116782;28;20321;-93
2022/11/01 06:06:49;;;;;;;13.73;1.30;;;13.00;99.90;;;;;;4132720;28;20657;-94
2022/11/01 06:08:49;;;;;;;13.27;1.17;;;12.90;99.90;;;;;;4116772;28;20225;-92
2022/11/01 06:10:51;;;;;;;14.63;1.52;;;12.90;99.90;;;;;;4132701;28;20277;-90
2022/11/01 06:12:51;;;;;;;8.57;1.08;;;12.80;99.90;;;;;;4116849;28;20190;-90
2022/11/01 06:14:52;;;;;;;9.18;1.30;;;12.90;99.90;;;;;;4148965;28;20307;-91
2022/11/01 06:16:53;;;;;;;11.50;1.15;;;12.80;99.90;;;;;;4116981;28;20257;-89
2022/11/01 06:18:53;;;;;;;10.30;1.30;;;12.70;99.90;;;;;;4116746;28;20234;-90
2022/11/01 06:20:55;;;;;;;19.38;2.03;;;12.70;99.90;;;;;;4116977;28;20169;-89
2022/11/01 06:22:57;;;;;;;10.43;1.35;;;12.60;99.90;;;;;;4133168;28;20193;-94
2022/11/01 06:24:58;;;;;;;9.38;1.20;;;12.60;99.90;;;;;;4132894;28;20170;-95
2022/11/01 06:26:59;;;;;;;9.13;1.20;;;12.60;99.90;;;;;;4132817;28;20177;-88
2022/11/01 06:29:01;;;;;;;9.77;1.10;;;12.70;99.90;;;;;;4117178;28;20174;-92
2022/11/01 06:31:03;;;;;;;13.63;1.58;;;12.70;99.90;;;;;;4132628;28;20178;-89
2022/11/01 06:33:05;;;;;;;11.45;1.50;;;12.60;99.90;;;;;;4132301;28;20186;-89
2022/11/01 06:35:06;;;;;;;8.88;1.33;;;12.50;99.90;;;;;;4132433;28;20174;-90
2022/11/01 06:37:07;;;;;;;13.90;1.58;;;12.60;99.90;;;;;;4132602;28;20169;-89
2022/11/01 06:39:10;;;;;;;14.80;1.30;;;12.50;99.90;;;;;;4116428;28;20764;-89
2022/11/01 06:41:11;;;;;;;11.18;1.33;;;12.50;99.90;;;;;;4132191;28;20170;-90
2022/11/01 06:43:12;;;;;;;9.40;1.10;;;12.50;99.90;;;;;;4132234;28;20219;-88
2022/11/01 06:45:13;;;;;;;13.88;1.63;;;12.50;99.90;;;;;;4132473;28;20170;-90
2022/11/01 06:47:13;;;;;;;15.27;1.80;;;12.50;99.90;;;;;;4132113;28;20578;-89
2022/11/01 06:49:14;;;;;;;9.32;1.50;;;12.60;99.90;;;;;;4132069;28;20256;-89
2022/11/01 06:51:15;;;;;;;11.50;1.60;;;12.60;99.90;;;;;;4116406;28;20250;-94
2022/11/01 06:53:15;;;;;;;15.77;1.40;;;12.50;99.90;;;;;;4132269;28;20189;-93
2022/11/01 06:55:16;;;;;;;13.15;1.50;;;12.50;99.90;;;;;;4116032;28;20163;-94
2022/11/01 06:57:17;;;;;;;7.10;1.30;;;12.50;99.90;;;;;;4132073;28;20249;-90
2022/11/01 06:59:18;;;;;;;9.07;1.60;;;12.60;99.90;;;;;;4115743;28;20174;-89
2022/11/01 07:01:20;;;;;;;10.57;1.17;;;12.70;99.90;;;;;;4132035;28;20229;-93
2022/11/01 07:03:22;;;;;;;12.10;1.75;;;12.70;99.90;;;;;;4115951;28;20618;-89
2022/11/01 07:05:23;;;;;;;10.40;1.88;;;12.70;99.90;;;;;;4148071;28;20173;-90
2022/11/01 07:07:24;;;;;;;16.27;2.00;;;12.60;99.90;;;;;;4132248;28;20170;-89
2022/11/01 07:09:24;;;;;;;12.40;1.58;;;12.60;99.90;;;;;;4116057;28;20630;-90
2022/11/01 07:11:25;;;;;;;17.75;1.60;;;12.60;99.90;;;;;;4131913;28;20177;-89
2022/11/01 07:13:29;;;;;;;15.63;2.30;;;12.70;99.90;;;;;;4116144;28;20174;-91
2022/11/01 07:15:31;;;;;;;20.10;1.83;;;12.60;99.90;;;;;;4131912;28;20239;-89
2022/11/01 07:17:31;;;;;;;11.82;1.58;;;12.60;99.90;;;;;;4132002;28;20324;-90
2022/11/01 07:19:32;;;;;;;17.63;1.65;;;12.70;99.90;;;;;;4132039;28;20189;-89
2022/11/01 07:21:33;;;;;;;13.05;1.75;;;12.70;99.90;;;;;;4148304;28;20217;-89
2022/11/01 07:23:33;;;;;;;13.90;1.42;;;12.70;99.90;;;;;;4132161;28;20185;-90
2022/11/01 07:25:34;;;;;;;13.10;1.60;;;12.80;99.90;;;;;;4116436;28;20229;-89
2022/11/01 07:27:35;;;;;;;15.63;1.67;;;12.80;99.90;;;;;;4132445;28;20181;-89
2022/11/01 07:29:38;;;;;;;16.05;1.88;;;12.90;99.90;;;;;;4132089;28;20728;-88
2022/11/01 07:31:39;;;;;;;14.82;1.80;;;12.90;99.90;;;;;;4132056;28;20264;-89
2022/11/01 07:33:40;;;;;;;11.07;1.58;;;13.00;99.90;;;;;;4132059;28;20174;-93
2022/11/01 07:35:41;;;;;;;12.60;1.85;;;13.00;99.90;;;;;;4132095;28;20271;-93
2022/11/01 07:37:42;;;;;;;12.02;1.48;;;13.00;99.90;;;;;;4115971;28;20233;-95
2022/11/01 07:39:42;;;;;;;10.35;0.98;;;13.00;99.90;;;;;;4131855;28;20228;-91
2022/11/01 07:41:43;;;;;;;17.63;1.70;;;13.10;99.90;;;;;;4115842;28;20217;-93
2022/11/01 07:43:43;;;;;;;9.40;1.55;;;13.00;99.90;;;;;;4147741;28;20360;-90
2022/11/01 07:45:45;;;;;;;21.90;2.65;;;13.00;99.90;;;;;;4131498;28;20184;-90
2022/11/01 07:47:45;;;;;;;14.77;1.75;;;13.20;99.90;;;;;;4131669;28;20232;-89
2022/11/01 07:49:46;;;;;;;19.20;1.67;;;13.10;99.90;;;;;;4147881;28;20165;-90
2022/11/01 07:51:47;;;;;;;14.60;1.50;;;13.10;99.90;;;;;;4131572;28;20198;-91
2022/11/01 07:53:48;;;;;;;24.30;2.20;;;13.40;99.90;;;;;;4115703;28;20175;-90
2022/11/01 07:55:48;;;;;;;14.07;1.50;;;13.60;99.90;;;;;;4115744;28;20294;-94
2022/11/01 07:57:49;;;;;;;9.52;1.45;;;13.70;99.90;;;;;;4131727;28;20209;-95
2022/11/01 07:59:50;;;;;;;21.73;2.75;;;13.70;99.90;;;;;;4115557;28;20174;-89
2022/11/01 08:01:50;;;;;;;13.90;1.52;;;13.90;99.90;;;;;;4150116;28;20259;-94
2022/11/01 08:03:51;;;;;;;15.20;1.90;;;14.10;99.90;;;;;;4134571;28;20169;-94
2022/11/01 08:05:52;;;;;;;13.40;1.73;;;14.20;99.90;;;;;;4118502;28;20214;-93
2022/11/01 08:07:53;;;;;;;14.25;1.55;;;14.30;99.90;;;;;;4150702;28;20208;-92
2022/11/01 08:09:53;;;;;;;17.50;2.00;;;14.30;99.90;;;;;;4118367;28;20181;-89
2022/11/01 08:11:54;;;;;;;15.45;1.98;;;14.30;99.90;;;;;;4118470;28;20213;-95
2022/11/01 08:13:55;;;;;;;9.98;1.45;;;14.80;99.90;;;;;;4134852;28;20264;-90
2022/11/01 08:15:59;;;;;;;12.07;1.85;;;14.90;99.90;;;;;;4134550;28;20181;-95
2022/11/01 08:18:00;;;;;;;15.80;1.80;;;14.90;99.90;;;;;;4134876;28;20712;-94
2022/11/01 08:20:01;;;;;;;17.45;1.77;;;15.40;99.90;;;;;;4118346;28;20174;-90
2022/11/01 08:22:02;;;;;;;16.00;1.70;;;15.60;99.90;;;;;;4150561;28;20771;-89
2022/11/01 08:24:02;;;;;;;15.00;1.52;;;15.80;99.90;;;;;;4150655;28;20165;-94
2022/11/01 08:26:05;;;;;;;12.25;1.67;;;15.80;99.90;;;;;;4134420;28;20177;-91
2022/11/01 08:28:08;;;;;;;16.10;1.60;;;15.80;99.90;;;;;;4134487;28;20665;-92
2022/11/01 08:30:09;;;;;;;14.77;1.80;;;15.60;99.90;;;;;;4134649;28;20240;-90
2022/11/01 08:32:10;;;;;;;10.50;1.48;;;15.70;99.90;;;;;;4134553;28;20252;-90
2022/11/01 08:34:11;;;;;;;19.73;1.83;;;15.60;99.90;;;;;;4134669;28;20197;-90
2022/11/01 08:36:11;;;;;;;14.95;2.50;;;15.60;99.90;;;;;;4134696;28;20181;-94
2022/11/01 08:38:12;;;;;;;18.85;2.20;;;15.50;99.90;;;;;;4134452;28;20224;-91
2022/11/01 08:40:13;;;;;;;13.32;2.10;;;15.50;99.90;;;;;;4118303;28;20178;-92
2022/11/01 08:42:13;;;;;;;15.02;2.13;;;15.30;99.90;;;;;;4134399;28;20325;-88
2022/11/01 08:44:16;;;;;;;16.08;1.48;;;15.50;99.90;;;;;;4118163;28;20209;-90
2022/11/01 08:46:17;;;;;;;8.27;1.38;;;15.50;99.90;;;;;;4134263;28;20173;-94
2022/11/01 08:48:17;;;;;;;12.93;1.60;;;15.60;99.90;;;;;;4118098;28;20204;-91
2022/11/01 08:50:18;;;;;;;10.02;1.85;;;15.50;99.90;;;;;;4150568;28;20183;-89
2022/11/01 08:52:19;;;;;;;17.17;2.05;;;15.60;99.90;;;;;;4134306;28;20673;-91
2022/11/01 08:54:19;;;;;;;11.82;1.55;;;15.80;99.90;;;;;;4118173;28;20175;-89
2022/11/01 08:56:20;;;;;;;9.60;1.48;;;16.00;99.90;;;;;;4133987;28;20189;-89
2022/11/01 08:58:21;;;;;;;13.65;1.60;;;16.20;99.90;;;;;;4134056;28;20205;-95
2022/11/01 09:00:22;;;;;;;11.90;1.50;;;16.50;99.90;;;;;;4117854;28;20181;-92
2022/11/01 09:02:23;;;;;;;12.55;1.60;;;16.20;99.90;;;;;;4150154;28;20247;-93
2022/11/01 09:04:24;;;;;;;12.38;2.03;;;16.30;99.90;;;;;;4117795;28;20269;-93
2022/11/01 09:06:26;;;;;;;16.85;1.85;;;16.50;99.90;;;;;;4117674;28;20174;-92
2022/11/01 09:08:26;;;;;;;16.13;2.25;;;16.40;99.90;;;;;;4134228;28;20712;-89
2022/11/01 09:10:29;;;;;;;11.30;1.55;;;16.30;99.90;;;;;;4133805;28;20276;-90
2022/11/01 09:12:30;;;;;;;12.88;1.63;;;16.20;99.90;;;;;;4133639;28;20229;-89
2022/11/01 09:14:30;;;;;;;19.92;2.15;;;16.60;99.90;;;;;;4117543;28;20182;-90
2022/11/01 09:16:32;;;;;;;18.38;2.10;;;16.30;99.90;;;;;;4149978;28;20185;-90
2022/11/01 09:18:33;;;;;;;14.45;1.70;;;16.20;99.90;;;;;;4117426;28;20214;-89
2022/11/01 09:20:34;;;;;;;10.40;1.63;;;16.00;99.90;;;;;;4133700;28;20224;-89
2022/11/01 09:22:38;;;;;;;16.55;2.38;;;16.00;99.90;;;;;;4117531;28;20206;-90
2022/11/01 09:24:39;;;;;;;13.00;1.77;;;16.00;99.90;;;;;;4117365;28;20654;-90
2022/11/01 09:26:40;;;;;;;14.68;1.60;;;15.90;99.90;;;;;;4149691;28;20184;-89
2022/11/01 09:28:41;;;;;;;8.95;1.55;;;15.70;99.90;;;;;;4133627;28;20216;-90
2022/11/01 09:30:42;;;;;;;14.90;1.60;;;15.80;99.90;;;;;;4133837;28;20534;-95
2022/11/01 09:32:43;;;;;;;15.07;2.17;;;15.50;99.90;;;;;;4134013;28;20205;-91
2022/11/01 09:34:44;;;;;;;17.80;1.83;;;15.60;99.90;;;;;;4134000;28;20397;-90
2022/11/01 09:36:46;;;;;;;9.57;1.67;;;15.60;99.90;;;;;;4134296;28;20233;-91
2022/11/01 09:38:46;;;;;;;13.50;1.52;;;15.70;99.90;;;;;;4134581;28;20209;-96
2022/11/01 09:41:00;;;;;;;14.48;1.73;;;15.80;99.90;;;;;;4117202;28;20168;-89
2022/11/01 09:43:04;;;;;;;11.43;1.80;;;15.50;99.90;;;;;;4133478;28;20201;-90
2022/11/01 09:45:12;;;;;;;15.50;2.42;;;15.50;99.90;;;;;;4133120;28;20181;-91
2022/11/01 09:47:19;;;;;;;15.20;1.90;;;15.40;99.90;;;;;;4138847;28;20720;-91
2022/11/01 09:49:25;;;;;;;10.48;1.60;;;15.30;99.90;;;;;;4148838;28;20242;-92
2022/11/01 09:51:27;;;;;;;13.23;1.67;;;15.50;99.90;;;;;;4148226;28;20185;-92
2022/11/01 09:53:28;;;;;;;22.45;2.33;;;15.50;99.90;;;;;;4148254;28;20272;-90
2022/11/01 09:56:08;;;;;;;16.75;2.08;;;15.50;99.90;;;;;;4151057;28;20207;-93
2022/11/01 09:58:15;;;;;;;11.65;1.73;;;15.50;99.90;;;;;;4166199;28;20242;-96
2022/11/01 10:00:18;;;;;;;20.58;2.10;;;15.60;99.90;;;;;;4149515;28;20199;-93
2022/11/01 10:02:40;;;;;;;14.68;2.03;;;15.50;99.90;;;;;;4148535;28;20268;-91
2022/11/01 10:04:55;;;;;;;13.32;1.70;;;15.40;99.90;;;;;;4146835;28;20645;-92
2022/11/01 10:07:05;;;;;;;11.27;1.55;;;15.50;99.90;;;;;;4148097;28;20173;-93
2022/11/01 10:09:26;;;;;;;11.40;1.65;;;15.50;99.90;;;;;;4132575;28;20205;-92
2022/11/01 10:12:07;;;;;;;14.82;1.55;;;15.60;99.90;;;;;;4148571;28;20177;-91
2022/11/01 10:14:16;;;;;;;12.90;1.73;;;15.70;99.90;;;;;;4115908;28;20176;-92
2022/11/01 10:16:40;;;;;;;12.27;1.83;;;15.70;99.90;;;;;;4148552;28;20184;-91
2022/11/01 10:18:59;;;;;;;16.55;1.60;;;15.90;99.90;;;;;;4117862;28;20218;-92
2022/11/01 10:21:05;;;;;;;12.90;1.80;;;16.10;99.90;;;;;;4133609;28;20178;-90
2022/11/01 10:23:11;;;;;;;12.60;1.92;;;16.20;99.90;;;;;;4152160;28;20216;-89
2022/11/01 10:25:26;;;;;;;13.80;1.90;;;16.20;99.90;;;;;;4177511;28;20152;-91
2022/11/01 10:27:36;;;;;;;11.70;1.65;;;16.20;99.90;;;;;;4168673;28;20270;-92
2022/11/01 10:30:02;;;;;;;16.65;2.22;;;16.10;99.90;;;;;;4164606;28;20636;-90
2022/11/01 10:32:08;;;;;;;15.35;2.10;;;16.10;99.90;;;;;;4165119;28;20667;-92
2022/11/01 10:34:38;;;;;;;8.90;1.60;;;16.20;99.90;;;;;;4164300;28;20175;-91
2022/11/01 10:36:43;;;;;;;15.88;1.88;;;16.30;99.90;;;;;;4128236;28;20248;-94
2022/11/01 10:38:47;;;;;;;12.73;1.75;;;16.40;99.90;;;;;;4148439;28;20205;-91
2022/11/01 10:40:55;;;;;;;11.57;1.73;;;16.60;99.90;;;;;;4148500;28;20185;-91
2022/11/01 10:42:57;;;;;;;16.35;1.88;;;16.60;99.90;;;;;;4148447;28;20783;-93
2022/11/01 10:45:06;;;;;;;16.92;1.40;;;16.70;99.90;;;;;;4147980;28;20563;-93
2022/11/01 10:47:14;;;;;;;15.27;1.90;;;16.70;99.90;;;;;;4148111;28;20176;-92
2022/11/01 10:49:26;;;;;;;19.80;1.98;;;16.50;99.90;;;;;;4147998;28;20311;-91
2022/11/01 10:51:29;;;;;;;13.07;1.67;;;16.40;99.90;;;;;;4147957;28;20717;-91